sensor_id;sensor_type;location;lat;lon;timestamp;temperature;humidity
64198;SHT31;50512;53.666;9.700;2023-06-24T00:01:56;14.72;96.76
64198;SHT31;50512;53.666;9.700;2023-06-24T00:04:23;14.67;97.21
64198;SHT31;50512;53.666;9.700;2023-06-24T00:06:49;14.59;97.00
64198;SHT31;50512;53.666;9.700;2023-06-24T00:09:18;14.55;97.16
64198;SHT31;50512;53.666;9.700;2023-06-24T00:11:46;14.56;97.10
64198;SHT31;50512;53.666;9.700;2023-06-24T00:14:12;14.49;97.08
64198;SHT31;50512;53.666;9.700;2023-06-24T00:16:40;14.40;97.24
64198;SHT31;50512;53.666;9.700;2023-06-24T00:19:07;14.36;97.58
64198;SHT31;50512;53.666;9.700;2023-06-24T00:21:33;14.31;97.22
64198;SHT31;50512;53.666;9.700;2023-06-24T00:24:03;14.24;97.64
64198;SHT31;50512;53.666;9.700;2023-06-24T00:26:31;14.18;97.68
64198;SHT31;50512;53.666;9.700;2023-06-24T00:28:57;14.24;97.41
64198;SHT31;50512;53.666;9.700;2023-06-24T00:31:24;14.17;97.43
64198;SHT31;50512;53.666;9.700;2023-06-24T00:33:50;14.12;97.59
64198;SHT31;50512;53.666;9.700;2023-06-24T00:36:18;14.02;97.11
64198;SHT31;50512;53.666;9.700;2023-06-24T00:38:44;13.93;97.86
64198;SHT31;50512;53.666;9.700;2023-06-24T00:41:11;14.01;98.34
64198;SHT31;50512;53.666;9.700;2023-06-24T00:43:39;13.95;98.03
64198;SHT31;50512;53.666;9.700;2023-06-24T00:46:05;14.01;97.86
64198;SHT31;50512;53.666;9.700;2023-06-24T00:48:32;14.07;97.94
64198;SHT31;50512;53.666;9.700;2023-06-24T00:50:58;14.00;97.81
64198;SHT31;50512;53.666;9.700;2023-06-24T00:53:25;14.02;97.97
64198;SHT31;50512;53.666;9.700;2023-06-24T00:55:52;14.01;97.92
64198;SHT31;50512;53.666;9.700;2023-06-24T00:58:19;13.95;98.10
64198;SHT31;50512;53.666;9.700;2023-06-24T01:00:48;13.94;98.21
64198;SHT31;50512;53.666;9.700;2023-06-24T01:03:22;13.95;97.97
64198;SHT31;50512;53.666;9.700;2023-06-24T01:05:50;13.90;97.33
64198;SHT31;50512;53.666;9.700;2023-06-24T01:08:17;13.83;97.58
64198;SHT31;50512;53.666;9.700;2023-06-24T01:10:44;13.78;97.66
64198;SHT31;50512;53.666;9.700;2023-06-24T01:13:11;13.70;98.12
64198;SHT31;50512;53.666;9.700;2023-06-24T01:15:38;13.71;98.54
64198;SHT31;50512;53.666;9.700;2023-06-24T01:18:08;13.62;98.06
64198;SHT31;50512;53.666;9.700;2023-06-24T01:20:41;13.56;98.50
64198;SHT31;50512;53.666;9.700;2023-06-24T01:26:18;13.39;98.14
64198;SHT31;50512;53.666;9.700;2023-06-24T01:29:06;13.30;98.44
64198;SHT31;50512;53.666;9.700;2023-06-24T01:31:39;13.36;99.05
64198;SHT31;50512;53.666;9.700;2023-06-24T01:34:15;13.28;98.24
64198;SHT31;50512;53.666;9.700;2023-06-24T01:36:51;13.23;98.81
64198;SHT31;50512;53.666;9.700;2023-06-24T01:39:21;13.16;98.85
64198;SHT31;50512;53.666;9.700;2023-06-24T01:41:56;13.11;98.87
64198;SHT31;50512;53.666;9.700;2023-06-24T01:44:25;13.14;99.06
64198;SHT31;50512;53.666;9.700;2023-06-24T01:46:57;13.10;99.03
64198;SHT31;50512;53.666;9.700;2023-06-24T01:49:28;13.11;99.31
64198;SHT31;50512;53.666;9.700;2023-06-24T01:51:57;13.10;98.73
64198;SHT31;50512;53.666;9.700;2023-06-24T01:54:26;13.00;98.54
64198;SHT31;50512;53.666;9.700;2023-06-24T01:56:54;12.92;98.85
64198;SHT31;50512;53.666;9.700;2023-06-24T01:59:22;12.97;99.39
64198;SHT31;50512;53.666;9.700;2023-06-24T02:01:50;12.97;99.46
64198;SHT31;50512;53.666;9.700;2023-06-24T02:04:19;12.95;98.92
64198;SHT31;50512;53.666;9.700;2023-06-24T02:06:47;12.90;98.67
64198;SHT31;50512;53.666;9.700;2023-06-24T02:09:15;12.83;98.67
64198;SHT31;50512;53.666;9.700;2023-06-24T02:11:44;12.84;98.80
64198;SHT31;50512;53.666;9.700;2023-06-24T02:14:11;12.81;99.24
64198;SHT31;50512;53.666;9.700;2023-06-24T02:16:39;12.79;99.55
64198;SHT31;50512;53.666;9.700;2023-06-24T02:19:08;12.76;99.79
64198;SHT31;50512;53.666;9.700;2023-06-24T02:21:39;12.77;99.99
64198;SHT31;50512;53.666;9.700;2023-06-24T02:24:07;12.80;99.99
64198;SHT31;50512;53.666;9.700;2023-06-24T02:26:34;12.77;99.96
64198;SHT31;50512;53.666;9.700;2023-06-24T02:29:06;12.76;99.99
64198;SHT31;50512;53.666;9.700;2023-06-24T02:31:34;12.76;99.99
64198;SHT31;50512;53.666;9.700;2023-06-24T02:34:00;12.92;99.99
64198;SHT31;50512;53.666;9.700;2023-06-24T02:36:27;13.01;99.99
64198;SHT31;50512;53.666;9.700;2023-06-24T02:38:55;12.85;99.37
64198;SHT31;50512;53.666;9.700;2023-06-24T02:41:21;12.91;99.42
64198;SHT31;50512;53.666;9.700;2023-06-24T02:43:48;12.83;99.40
64198;SHT31;50512;53.666;9.700;2023-06-24T02:46:15;12.80;99.73
64198;SHT31;50512;53.666;9.700;2023-06-24T02:48:43;12.76;99.49
64198;SHT31;50512;53.666;9.700;2023-06-24T02:51:11;12.74;99.81
64198;SHT31;50512;53.666;9.700;2023-06-24T02:53:38;12.61;99.24
64198;SHT31;50512;53.666;9.700;2023-06-24T02:56:08;12.64;99.80
64198;SHT31;50512;53.666;9.700;2023-06-24T02:58:36;12.60;99.88
64198;SHT31;50512;53.666;9.700;2023-06-24T03:01:03;12.61;99.99
64198;SHT31;50512;53.666;9.700;2023-06-24T03:03:34;12.59;99.99
64198;SHT31;50512;53.666;9.700;2023-06-24T03:06:01;12.59;99.88
64198;SHT31;50512;53.666;9.700;2023-06-24T03:08:29;12.55;99.99
64198;SHT31;50512;53.666;9.700;2023-06-24T03:10:55;12.55;99.99
64198;SHT31;50512;53.666;9.700;2023-06-24T03:13:23;12.52;99.99
64198;SHT31;50512;53.666;9.700;2023-06-24T03:15:50;12.55;99.99
64198;SHT31;50512;53.666;9.700;2023-06-24T03:18:17;12.61;99.99
64198;SHT31;50512;53.666;9.700;2023-06-24T03:20:43;12.57;99.99
64198;SHT31;50512;53.666;9.700;2023-06-24T03:23:11;12.61;99.99
64198;SHT31;50512;53.666;9.700;2023-06-24T03:25:37;12.67;99.99
64198;SHT31;50512;53.666;9.700;2023-06-24T03:28:03;12.70;99.99
64198;SHT31;50512;53.666;9.700;2023-06-24T03:30:34;12.64;99.98
64198;SHT31;50512;53.666;9.700;2023-06-24T03:33:00;12.81;99.99
64198;SHT31;50512;53.666;9.700;2023-06-24T03:35:27;12.88;99.99
64198;SHT31;50512;53.666;9.700;2023-06-24T03:37:54;12.79;99.33
64198;SHT31;50512;53.666;9.700;2023-06-24T03:40:21;12.81;99.36
64198;SHT31;50512;53.666;9.700;2023-06-24T03:42:47;12.80;99.89
64198;SHT31;50512;53.666;9.700;2023-06-24T03:45:14;12.77;99.86
64198;SHT31;50512;53.666;9.700;2023-06-24T03:47:42;12.81;99.99
64198;SHT31;50512;53.666;9.700;2023-06-24T03:50:09;12.88;99.99
64198;SHT31;50512;53.666;9.700;2023-06-24T03:52:35;12.97;99.99
64198;SHT31;50512;53.666;9.700;2023-06-24T03:55:02;13.05;99.99
64198;SHT31;50512;53.666;9.700;2023-06-24T03:57:30;13.12;99.99
64198;SHT31;50512;53.666;9.700;2023-06-24T03:59:56;13.22;99.99
64198;SHT31;50512;53.666;9.700;2023-06-24T04:02:23;13.28;99.99
64198;SHT31;50512;53.666;9.700;2023-06-24T04:04:50;13.38;99.99
64198;SHT31;50512;53.666;9.700;2023-06-24T04:07:18;13.47;99.99
64198;SHT31;50512;53.666;9.700;2023-06-24T04:09:54;13.57;99.99
64198;SHT31;50512;53.666;9.700;2023-06-24T04:12:20;13.65;99.99
64198;SHT31;50512;53.666;9.700;2023-06-24T04:14:47;13.69;99.99
64198;SHT31;50512;53.666;9.700;2023-06-24T04:17:13;13.76;99.99
64198;SHT31;50512;53.666;9.700;2023-06-24T04:19:40;13.83;99.99
64198;SHT31;50512;53.666;9.700;2023-06-24T04:22:08;13.87;99.99
64198;SHT31;50512;53.666;9.700;2023-06-24T04:24:35;13.95;99.99
64198;SHT31;50512;53.666;9.700;2023-06-24T04:27:01;14.02;99.99
64198;SHT31;50512;53.666;9.700;2023-06-24T04:29:28;14.04;99.99
64198;SHT31;50512;53.666;9.700;2023-06-24T04:31:54;14.08;99.99
64198;SHT31;50512;53.666;9.700;2023-06-24T04:34:21;14.18;99.99
64198;SHT31;50512;53.666;9.700;2023-06-24T04:36:47;14.22;99.99
64198;SHT31;50512;53.666;9.700;2023-06-24T04:39:15;14.32;99.99
64198;SHT31;50512;53.666;9.700;2023-06-24T04:41:45;14.43;99.99
64198;SHT31;50512;53.666;9.700;2023-06-24T04:44:14;14.52;99.99
64198;SHT31;50512;53.666;9.700;2023-06-24T04:46:40;14.55;99.99
64198;SHT31;50512;53.666;9.700;2023-06-24T04:49:07;14.65;99.99
64198;SHT31;50512;53.666;9.700;2023-06-24T04:51:38;14.77;99.99
64198;SHT31;50512;53.666;9.700;2023-06-24T04:54:05;14.95;99.99
64198;SHT31;50512;53.666;9.700;2023-06-24T04:56:34;14.98;99.99
64198;SHT31;50512;53.666;9.700;2023-06-24T04:59:00;15.01;99.99
64198;SHT31;50512;53.666;9.700;2023-06-24T05:01:27;15.21;99.99
64198;SHT31;50512;53.666;9.700;2023-06-24T05:03:53;15.43;99.99
64198;SHT31;50512;53.666;9.700;2023-06-24T05:06:20;15.50;99.87
64198;SHT31;50512;53.666;9.700;2023-06-24T05:08:46;15.63;99.82
64198;SHT31;50512;53.666;9.700;2023-06-24T05:11:13;15.69;99.16
64198;SHT31;50512;53.666;9.700;2023-06-24T05:13:41;15.73;98.89
64198;SHT31;50512;53.666;9.700;2023-06-24T05:16:07;15.80;98.90
64198;SHT31;50512;53.666;9.700;2023-06-24T05:18:34;15.97;99.09
64198;SHT31;50512;53.666;9.700;2023-06-24T05:21:01;16.10;98.67
64198;SHT31;50512;53.666;9.700;2023-06-24T05:23:27;16.17;98.30
64198;SHT31;50512;53.666;9.700;2023-06-24T05:25:54;16.28;97.98
64198;SHT31;50512;53.666;9.700;2023-06-24T05:28:20;16.33;97.32
64198;SHT31;50512;53.666;9.700;2023-06-24T05:30:48;16.44;97.26
64198;SHT31;50512;53.666;9.700;2023-06-24T05:33:14;16.51;96.84
64198;SHT31;50512;53.666;9.700;2023-06-24T05:35:42;16.65;95.31
64198;SHT31;50512;53.666;9.700;2023-06-24T05:38:09;16.68;94.63
64198;SHT31;50512;53.666;9.700;2023-06-24T05:40:35;16.75;94.41
64198;SHT31;50512;53.666;9.700;2023-06-24T05:43:02;16.97;93.49
64198;SHT31;50512;53.666;9.700;2023-06-24T05:45:28;17.08;93.39
64198;SHT31;50512;53.666;9.700;2023-06-24T05:47:56;17.41;91.76
64198;SHT31;50512;53.666;9.700;2023-06-24T05:50:22;17.77;91.03
64198;SHT31;50512;53.666;9.700;2023-06-24T05:52:49;18.08;89.67
64198;SHT31;50512;53.666;9.700;2023-06-24T05:55:15;17.69;89.87
64198;SHT31;50512;53.666;9.700;2023-06-24T05:57:42;17.73;89.69
64198;SHT31;50512;53.666;9.700;2023-06-24T06:00:09;17.66;89.01
64198;SHT31;50512;53.666;9.700;2023-06-24T06:02:35;18.07;88.97
64198;SHT31;50512;53.666;9.700;2023-06-24T06:05:04;18.30;87.96
64198;SHT31;50512;53.666;9.700;2023-06-24T06:07:31;18.34;85.72
64198;SHT31;50512;53.666;9.700;2023-06-24T06:09:57;18.42;84.35
64198;SHT31;50512;53.666;9.700;2023-06-24T06:12:24;18.21;86.24
64198;SHT31;50512;53.666;9.700;2023-06-24T06:14:50;18.51;84.91
64198;SHT31;50512;53.666;9.700;2023-06-24T06:17:16;18.61;84.08
64198;SHT31;50512;53.666;9.700;2023-06-24T06:19:43;19.07;82.76
64198;SHT31;50512;53.666;9.700;2023-06-24T06:22:13;18.48;82.73
64198;SHT31;50512;53.666;9.700;2023-06-24T06:24:40;18.87;83.85
64198;SHT31;50512;53.666;9.700;2023-06-24T06:27:09;19.34;82.41
64198;SHT31;50512;53.666;9.700;2023-06-24T06:29:36;18.83;82.57
64198;SHT31;50512;53.666;9.700;2023-06-24T06:32:03;18.82;83.74
64198;SHT31;50512;53.666;9.700;2023-06-24T06:34:29;18.47;83.70
64198;SHT31;50512;53.666;9.700;2023-06-24T06:36:56;18.28;83.77
64198;SHT31;50512;53.666;9.700;2023-06-24T06:39:23;18.07;83.72
64198;SHT31;50512;53.666;9.700;2023-06-24T06:41:50;18.44;84.58
64198;SHT31;50512;53.666;9.700;2023-06-24T06:44:16;18.69;81.50
64198;SHT31;50512;53.666;9.700;2023-06-24T06:46:43;18.90;82.46
64198;SHT31;50512;53.666;9.700;2023-06-24T06:49:09;19.63;80.40
64198;SHT31;50512;53.666;9.700;2023-06-24T06:51:36;19.87;78.15
64198;SHT31;50512;53.666;9.700;2023-06-24T06:54:02;19.51;77.35
64198;SHT31;50512;53.666;9.700;2023-06-24T06:56:30;19.87;79.02
64198;SHT31;50512;53.666;9.700;2023-06-24T06:58:57;19.08;79.31
64198;SHT31;50512;53.666;9.700;2023-06-24T07:01:23;19.34;79.11
64198;SHT31;50512;53.666;9.700;2023-06-24T07:03:50;19.85;77.89
64198;SHT31;50512;53.666;9.700;2023-06-24T07:06:17;19.97;78.03
64198;SHT31;50512;53.666;9.700;2023-06-24T07:08:44;20.27;77.47
64198;SHT31;50512;53.666;9.700;2023-06-24T07:11:10;20.43;77.86
64198;SHT31;50512;53.666;9.700;2023-06-24T07:13:38;20.71;75.42
64198;SHT31;50512;53.666;9.700;2023-06-24T07:16:04;21.10;73.42
64198;SHT31;50512;53.666;9.700;2023-06-24T07:18:31;20.67;71.73
64198;SHT31;50512;53.666;9.700;2023-06-24T07:21:00;20.72;73.98
64198;SHT31;50512;53.666;9.700;2023-06-24T07:23:26;20.41;74.58
64198;SHT31;50512;53.666;9.700;2023-06-24T07:25:53;20.65;74.37
64198;SHT31;50512;53.666;9.700;2023-06-24T07:28:19;21.48;72.86
64198;SHT31;50512;53.666;9.700;2023-06-24T07:30:47;21.68;69.18
64198;SHT31;50512;53.666;9.700;2023-06-24T07:33:13;21.85;69.62
64198;SHT31;50512;53.666;9.700;2023-06-24T07:35:40;20.92;70.98
64198;SHT31;50512;53.666;9.700;2023-06-24T07:38:06;20.92;70.37
64198;SHT31;50512;53.666;9.700;2023-06-24T07:40:33;21.40;71.42
64198;SHT31;50512;53.666;9.700;2023-06-24T07:42:59;20.93;72.04
64198;SHT31;50512;53.666;9.700;2023-06-24T07:45:26;21.41;71.41
64198;SHT31;50512;53.666;9.700;2023-06-24T07:47:53;21.65;70.66
64198;SHT31;50512;53.666;9.700;2023-06-24T07:50:20;21.64;70.55
64198;SHT31;50512;53.666;9.700;2023-06-24T07:52:46;20.88;71.52
64198;SHT31;50512;53.666;9.700;2023-06-24T07:55:13;20.40;73.57
64198;SHT31;50512;53.666;9.700;2023-06-24T07:57:39;20.37;74.05
64198;SHT31;50512;53.666;9.700;2023-06-24T08:00:07;20.44;73.08
64198;SHT31;50512;53.666;9.700;2023-06-24T08:02:36;20.69;73.14
64198;SHT31;50512;53.666;9.700;2023-06-24T08:05:05;21.02;71.32
64198;SHT31;50512;53.666;9.700;2023-06-24T08:07:31;21.14;71.64
64198;SHT31;50512;53.666;9.700;2023-06-24T08:09:57;21.38;70.52
64198;SHT31;50512;53.666;9.700;2023-06-24T08:12:24;21.35;69.82
64198;SHT31;50512;53.666;9.700;2023-06-24T08:14:50;21.74;70.27
64198;SHT31;50512;53.666;9.700;2023-06-24T08:17:17;21.65;68.75
64198;SHT31;50512;53.666;9.700;2023-06-24T08:19:43;21.90;68.69
64198;SHT31;50512;53.666;9.700;2023-06-24T08:22:11;21.79;69.22
64198;SHT31;50512;53.666;9.700;2023-06-24T08:24:39;21.78;70.74
64198;SHT31;50512;53.666;9.700;2023-06-24T08:27:06;21.81;68.79
64198;SHT31;50512;53.666;9.700;2023-06-24T08:29:33;22.45;69.01
64198;SHT31;50512;53.666;9.700;2023-06-24T08:32:00;22.87;65.94
64198;SHT31;50512;53.666;9.700;2023-06-24T08:34:26;22.39;67.34
64198;SHT31;50512;53.666;9.700;2023-06-24T08:36:53;23.30;65.75
64198;SHT31;50512;53.666;9.700;2023-06-24T08:39:21;23.05;65.22
64198;SHT31;50512;53.666;9.700;2023-06-24T08:41:47;22.51;65.60
64198;SHT31;50512;53.666;9.700;2023-06-24T08:44:14;23.05;65.49
64198;SHT31;50512;53.666;9.700;2023-06-24T08:46:41;21.72;66.08
64198;SHT31;50512;53.666;9.700;2023-06-24T08:49:13;22.26;65.67
64198;SHT31;50512;53.666;9.700;2023-06-24T08:51:42;22.45;65.87
64198;SHT31;50512;53.666;9.700;2023-06-24T08:54:14;22.37;65.75
64198;SHT31;50512;53.666;9.700;2023-06-24T08:56:41;22.45;66.84
64198;SHT31;50512;53.666;9.700;2023-06-24T08:59:08;22.96;61.43
64198;SHT31;50512;53.666;9.700;2023-06-24T09:01:35;22.79;65.58
64198;SHT31;50512;53.666;9.700;2023-06-24T09:04:01;22.78;64.20
64198;SHT31;50512;53.666;9.700;2023-06-24T09:06:29;22.63;63.65
64198;SHT31;50512;53.666;9.700;2023-06-24T09:08:55;22.98;63.38
64198;SHT31;50512;53.666;9.700;2023-06-24T09:11:22;22.65;62.67
64198;SHT31;50512;53.666;9.700;2023-06-24T09:13:55;22.40;63.18
64198;SHT31;50512;53.666;9.700;2023-06-24T09:16:22;22.79;64.13
64198;SHT31;50512;53.666;9.700;2023-06-24T09:18:50;22.47;63.05
64198;SHT31;50512;53.666;9.700;2023-06-24T09:21:22;22.75;61.96
64198;SHT31;50512;53.666;9.700;2023-06-24T09:23:51;22.84;64.22
64198;SHT31;50512;53.666;9.700;2023-06-24T09:26:18;23.34;61.90
64198;SHT31;50512;53.666;9.700;2023-06-24T09:28:47;23.31;62.44
64198;SHT31;50512;53.666;9.700;2023-06-24T09:31:15;22.24;63.71
64198;SHT31;50512;53.666;9.700;2023-06-24T09:33:48;22.58;66.94
64198;SHT31;50512;53.666;9.700;2023-06-24T09:36:14;22.23;66.18
64198;SHT31;50512;53.666;9.700;2023-06-24T09:38:42;22.78;65.88
64198;SHT31;50512;53.666;9.700;2023-06-24T09:41:10;22.84;66.36
64198;SHT31;50512;53.666;9.700;2023-06-24T09:43:37;23.42;65.07
64198;SHT31;50512;53.666;9.700;2023-06-24T09:46:05;23.85;64.36
64198;SHT31;50512;53.666;9.700;2023-06-24T09:48:34;23.15;67.99
64198;SHT31;50512;53.666;9.700;2023-06-24T09:51:02;22.84;65.90
64198;SHT31;50512;53.666;9.700;2023-06-24T09:53:30;22.37;64.52
64198;SHT31;50512;53.666;9.700;2023-06-24T09:55:57;23.02;65.89
64198;SHT31;50512;53.666;9.700;2023-06-24T09:58:25;22.94;64.69
64198;SHT31;50512;53.666;9.700;2023-06-24T10:00:54;23.08;65.88
64198;SHT31;50512;53.666;9.700;2023-06-24T10:03:21;23.51;64.77
64198;SHT31;50512;53.666;9.700;2023-06-24T10:05:50;22.89;63.61
64198;SHT31;50512;53.666;9.700;2023-06-24T10:08:16;22.95;66.52
64198;SHT31;50512;53.666;9.700;2023-06-24T10:10:43;23.02;63.07
64198;SHT31;50512;53.666;9.700;2023-06-24T10:13:10;23.20;65.08
64198;SHT31;50512;53.666;9.700;2023-06-24T10:15:37;23.37;64.07
64198;SHT31;50512;53.666;9.700;2023-06-24T10:18:32;23.95;63.98
64198;SHT31;50512;53.666;9.700;2023-06-24T10:21:01;24.29;64.28
64198;SHT31;50512;53.666;9.700;2023-06-24T10:23:30;24.08;63.89
64198;SHT31;50512;53.666;9.700;2023-06-24T10:25:57;23.78;61.90
64198;SHT31;50512;53.666;9.700;2023-06-24T10:28:23;23.67;64.55
64198;SHT31;50512;53.666;9.700;2023-06-24T10:30:54;23.63;64.55
64198;SHT31;50512;53.666;9.700;2023-06-24T10:33:21;23.94;63.80
64198;SHT31;50512;53.666;9.700;2023-06-24T10:35:49;24.22;65.28
64198;SHT31;50512;53.666;9.700;2023-06-24T10:38:17;24.41;62.50
64198;SHT31;50512;53.666;9.700;2023-06-24T10:40:44;24.63;62.64
64198;SHT31;50512;53.666;9.700;2023-06-24T10:43:25;24.81;61.38
64198;SHT31;50512;53.666;9.700;2023-06-24T10:45:53;24.90;61.55
64198;SHT31;50512;53.666;9.700;2023-06-24T10:48:20;24.94;62.55
64198;SHT31;50512;53.666;9.700;2023-06-24T10:50:46;25.16;61.82
64198;SHT31;50512;53.666;9.700;2023-06-24T10:53:13;25.01;62.40
64198;SHT31;50512;53.666;9.700;2023-06-24T10:55:41;24.74;63.05
64198;SHT31;50512;53.666;9.700;2023-06-24T10:58:10;24.65;63.39
64198;SHT31;50512;53.666;9.700;2023-06-24T11:00:38;24.87;62.22
64198;SHT31;50512;53.666;9.700;2023-06-24T11:03:08;25.07;63.13
64198;SHT31;50512;53.666;9.700;2023-06-24T11:05:34;24.40;61.99
64198;SHT31;50512;53.666;9.700;2023-06-24T11:08:05;24.63;63.74
64198;SHT31;50512;53.666;9.700;2023-06-24T11:10:31;24.96;63.16
64198;SHT31;50512;53.666;9.700;2023-06-24T11:13:04;24.36;62.09
64198;SHT31;50512;53.666;9.700;2023-06-24T11:15:32;24.49;67.41
64198;SHT31;50512;53.666;9.700;2023-06-24T11:17:58;24.22;63.11
64198;SHT31;50512;53.666;9.700;2023-06-24T11:20:28;23.82;66.06
64198;SHT31;50512;53.666;9.700;2023-06-24T11:22:54;24.20;68.42
64198;SHT31;50512;53.666;9.700;2023-06-24T11:25:21;24.50;63.88
64198;SHT31;50512;53.666;9.700;2023-06-24T11:27:50;24.68;64.67
64198;SHT31;50512;53.666;9.700;2023-06-24T11:30:21;24.40;64.80
64198;SHT31;50512;53.666;9.700;2023-06-24T11:32:48;24.01;62.78
64198;SHT31;50512;53.666;9.700;2023-06-24T11:35:15;24.23;63.64
64198;SHT31;50512;53.666;9.700;2023-06-24T11:37:43;24.57;65.63
64198;SHT31;50512;53.666;9.700;2023-06-24T11:40:10;24.32;62.52
64198;SHT31;50512;53.666;9.700;2023-06-24T11:42:39;24.53;63.24
64198;SHT31;50512;53.666;9.700;2023-06-24T11:45:07;24.74;64.47
64198;SHT31;50512;53.666;9.700;2023-06-24T11:47:37;24.27;62.21
64198;SHT31;50512;53.666;9.700;2023-06-24T11:50:05;24.49;63.97
64198;SHT31;50512;53.666;9.700;2023-06-24T11:52:37;24.57;62.18
64198;SHT31;50512;53.666;9.700;2023-06-24T11:55:11;24.68;64.76
64198;SHT31;50512;53.666;9.700;2023-06-24T11:57:48;24.91;63.69
64198;SHT31;50512;53.666;9.700;2023-06-24T12:00:15;24.75;64.69
64198;SHT31;50512;53.666;9.700;2023-06-24T12:02:43;24.87;65.75
64198;SHT31;50512;53.666;9.700;2023-06-24T12:05:10;24.78;62.65
64198;SHT31;50512;53.666;9.700;2023-06-24T12:07:36;24.67;64.67
64198;SHT31;50512;53.666;9.700;2023-06-24T12:10:04;24.70;64.33
64198;SHT31;50512;53.666;9.700;2023-06-24T12:12:31;24.43;62.79
64198;SHT31;50512;53.666;9.700;2023-06-24T12:14:57;24.46;64.10
64198;SHT31;50512;53.666;9.700;2023-06-24T12:17:24;24.54;61.91
64198;SHT31;50512;53.666;9.700;2023-06-24T12:19:51;24.74;63.70
64198;SHT31;50512;53.666;9.700;2023-06-24T12:22:18;24.56;63.38
64198;SHT31;50512;53.666;9.700;2023-06-24T12:24:45;24.56;63.84
64198;SHT31;50512;53.666;9.700;2023-06-24T12:27:12;24.68;64.70
64198;SHT31;50512;53.666;9.700;2023-06-24T12:29:38;24.59;64.42
64198;SHT31;50512;53.666;9.700;2023-06-24T12:32:07;24.15;63.39
64198;SHT31;50512;53.666;9.700;2023-06-24T12:34:33;24.23;62.88
64198;SHT31;50512;53.666;9.700;2023-06-24T12:37:01;24.49;64.49
64198;SHT31;50512;53.666;9.700;2023-06-24T12:39:28;24.78;63.32
64198;SHT31;50512;53.666;9.700;2023-06-24T12:41:54;25.02;61.67
64198;SHT31;50512;53.666;9.700;2023-06-24T12:44:20;25.25;60.89
64198;SHT31;50512;53.666;9.700;2023-06-24T12:46:47;25.56;62.10
64198;SHT31;50512;53.666;9.700;2023-06-24T12:49:13;25.73;61.71
64198;SHT31;50512;53.666;9.700;2023-06-24T12:51:40;25.50;59.87
64198;SHT31;50512;53.666;9.700;2023-06-24T12:54:07;25.70;59.93
64198;SHT31;50512;53.666;9.700;2023-06-24T12:56:34;25.25;62.23
64198;SHT31;50512;53.666;9.700;2023-06-24T12:59:01;25.32;61.63
64198;SHT31;50512;53.666;9.700;2023-06-24T13:01:27;24.82;59.47
64198;SHT31;50512;53.666;9.700;2023-06-24T13:03:54;24.92;61.88
64198;SHT31;50512;53.666;9.700;2023-06-24T13:06:20;24.99;62.43
64198;SHT31;50512;53.666;9.700;2023-06-24T13:08:47;25.02;62.66
64198;SHT31;50512;53.666;9.700;2023-06-24T13:11:14;24.77;62.23
64198;SHT31;50512;53.666;9.700;2023-06-24T13:13:41;24.90;62.34
64198;SHT31;50512;53.666;9.700;2023-06-24T13:16:07;25.12;62.68
64198;SHT31;50512;53.666;9.700;2023-06-24T13:18:34;25.20;60.12
64198;SHT31;50512;53.666;9.700;2023-06-24T13:21:00;25.57;60.10
64198;SHT31;50512;53.666;9.700;2023-06-24T13:23:27;25.81;60.49
64198;SHT31;50512;53.666;9.700;2023-06-24T13:25:53;26.06;59.00
64198;SHT31;50512;53.666;9.700;2023-06-24T13:28:21;26.04;58.33
64198;SHT31;50512;53.666;9.700;2023-06-24T13:30:47;25.87;58.48
64198;SHT31;50512;53.666;9.700;2023-06-24T13:33:15;25.39;59.76
64198;SHT31;50512;53.666;9.700;2023-06-24T13:35:41;25.57;59.54
64198;SHT31;50512;53.666;9.700;2023-06-24T13:38:09;25.80;61.50
64198;SHT31;50512;53.666;9.700;2023-06-24T13:40:37;25.73;60.36
64198;SHT31;50512;53.666;9.700;2023-06-24T13:43:03;25.62;60.46
64198;SHT31;50512;53.666;9.700;2023-06-24T13:45:31;25.73;60.04
64198;SHT31;50512;53.666;9.700;2023-06-24T13:47:58;25.75;60.64
64198;SHT31;50512;53.666;9.700;2023-06-24T13:50:24;26.02;60.15
64198;SHT31;50512;53.666;9.700;2023-06-24T13:52:50;26.11;59.80
64198;SHT31;50512;53.666;9.700;2023-06-24T13:55:17;26.08;59.16
64198;SHT31;50512;53.666;9.700;2023-06-24T13:57:43;26.24;59.08
64198;SHT31;50512;53.666;9.700;2023-06-24T14:00:11;26.22;58.94
64198;SHT31;50512;53.666;9.700;2023-06-24T14:02:39;26.43;56.78
64198;SHT31;50512;53.666;9.700;2023-06-24T14:05:06;26.53;57.46
64198;SHT31;50512;53.666;9.700;2023-06-24T14:07:33;26.67;57.21
64198;SHT31;50512;53.666;9.700;2023-06-24T14:10:00;26.69;56.93
64198;SHT31;50512;53.666;9.700;2023-06-24T14:12:26;26.39;57.59
64198;SHT31;50512;53.666;9.700;2023-06-24T14:14:53;26.45;57.23
64198;SHT31;50512;53.666;9.700;2023-06-24T14:17:19;25.90;58.07
64198;SHT31;50512;53.666;9.700;2023-06-24T14:19:47;25.94;59.23
64198;SHT31;50512;53.666;9.700;2023-06-24T14:22:14;26.01;58.31
64198;SHT31;50512;53.666;9.700;2023-06-24T14:24:42;25.87;58.84
64198;SHT31;50512;53.666;9.700;2023-06-24T14:27:09;25.95;60.10
64198;SHT31;50512;53.666;9.700;2023-06-24T14:29:35;26.24;58.93
64198;SHT31;50512;53.666;9.700;2023-06-24T14:32:02;26.29;57.67
64198;SHT31;50512;53.666;9.700;2023-06-24T14:34:28;26.40;57.52
64198;SHT31;50512;53.666;9.700;2023-06-24T14:36:57;26.43;58.58
64198;SHT31;50512;53.666;9.700;2023-06-24T14:39:23;26.09;57.82
64198;SHT31;50512;53.666;9.700;2023-06-24T14:41:50;25.98;58.72
64198;SHT31;50512;53.666;9.700;2023-06-24T14:44:16;25.88;59.04
64198;SHT31;50512;53.666;9.700;2023-06-24T14:46:43;25.42;59.66
64198;SHT31;50512;53.666;9.700;2023-06-24T14:49:09;25.49;61.26
64198;SHT31;50512;53.666;9.700;2023-06-24T14:51:36;25.49;61.69
64198;SHT31;50512;53.666;9.700;2023-06-24T14:54:03;25.50;60.55
64198;SHT31;50512;53.666;9.700;2023-06-24T14:56:30;25.57;61.32
64198;SHT31;50512;53.666;9.700;2023-06-24T14:58:57;25.66;60.62
64198;SHT31;50512;53.666;9.700;2023-06-24T15:01:23;25.54;60.76
64198;SHT31;50512;53.666;9.700;2023-06-24T15:03:50;25.69;61.61
64198;SHT31;50512;53.666;9.700;2023-06-24T15:06:16;25.67;61.80
64198;SHT31;50512;53.666;9.700;2023-06-24T15:08:42;25.66;60.62
64198;SHT31;50512;53.666;9.700;2023-06-24T15:11:10;25.75;60.00
64198;SHT31;50512;53.666;9.700;2023-06-24T15:13:37;25.87;59.42
64198;SHT31;50512;53.666;9.700;2023-06-24T15:16:03;25.95;60.60
64198;SHT31;50512;53.666;9.700;2023-06-24T15:18:30;25.88;60.47
64198;SHT31;50512;53.666;9.700;2023-06-24T15:20:56;25.77;60.82
64198;SHT31;50512;53.666;9.700;2023-06-24T15:23:23;25.67;60.72
64198;SHT31;50512;53.666;9.700;2023-06-24T15:25:49;25.64;60.40
64198;SHT31;50512;53.666;9.700;2023-06-24T15:28:18;25.63;60.89
64198;SHT31;50512;53.666;9.700;2023-06-24T15:30:45;25.60;61.03
64198;SHT31;50512;53.666;9.700;2023-06-24T15:33:11;25.43;62.83
64198;SHT31;50512;53.666;9.700;2023-06-24T15:35:38;25.30;62.64